createdAt,value
2023-04-26T00:00:27.532Z,2.7
2023-04-26T00:01:28.125Z,2.5
2023-04-26T00:02:28.806Z,2.8
2023-04-26T00:03:29.530Z,2.6
2023-04-26T00:04:30.369Z,2.8
2023-04-26T00:05:30.799Z,2.4
2023-04-26T00:06:31.367Z,2.4
2023-04-26T00:07:31.968Z,2.5
2023-04-26T00:08:32.568Z,2.2
2023-04-26T00:09:33.169Z,2.4
2023-04-26T00:10:33.761Z,2.6
2023-04-26T00:11:34.362Z,2.4
2023-04-26T00:12:34.953Z,3.2
2023-04-26T00:13:35.548Z,2.8
2023-04-26T00:14:36.143Z,2.8
2023-04-26T00:15:36.737Z,3.0
2023-04-26T00:16:37.393Z,2.8
2023-04-26T00:17:37.986Z,2.6
2023-04-26T00:18:38.578Z,3.4
2023-04-26T00:19:39.138Z,3.1
2023-04-26T00:20:39.727Z,2.7
2023-04-26T00:21:40.356Z,2.7
2023-04-26T00:22:41.016Z,3.0
2023-04-26T00:23:41.525Z,3.0
2023-04-26T00:24:42.119Z,2.9
2023-04-26T00:25:42.711Z,3.0
2023-04-26T00:26:43.307Z,2.3
2023-04-26T00:27:43.901Z,3.1
2023-04-26T00:28:44.494Z,2.3
2023-04-26T00:29:45.090Z,2.9
2023-04-26T00:30:45.709Z,2.5
2023-04-26T00:31:46.340Z,3.0
2023-04-26T00:32:46.957Z,2.3
2023-04-26T00:33:47.740Z,2.5
2023-04-26T00:34:48.347Z,3.1
2023-04-26T00:35:48.936Z,2.6
2023-04-26T00:36:49.536Z,2.5
2023-04-26T00:37:50.122Z,2.4
2023-04-26T00:38:51.067Z,2.3
2023-04-26T00:39:51.863Z,2.9
2023-04-26T00:40:52.475Z,2.8
2023-04-26T00:41:53.070Z,3.3
2023-04-26T00:42:53.662Z,2.7
2023-04-26T00:43:54.279Z,2.9
2023-04-26T00:44:54.874Z,2.7
2023-04-26T00:45:55.489Z,2.7
2023-04-26T00:46:56.112Z,3.0
2023-04-26T00:47:56.714Z,2.9
2023-04-26T00:48:57.278Z,3.3
2023-04-26T00:49:57.870Z,3.2
2023-04-26T00:50:58.467Z,3.2
2023-04-26T00:51:59.083Z,2.7
2023-04-26T00:52:59.676Z,2.8
2023-04-26T00:54:00.262Z,2.8
2023-04-26T00:55:00.858Z,2.9
2023-04-26T00:56:01.555Z,3.1
2023-04-26T00:57:02.089Z,2.9
2023-04-26T00:58:02.690Z,3.2
2023-04-26T00:59:03.307Z,3.4
2023-04-26T01:00:03.914Z,2.8
2023-04-26T01:01:04.605Z,3.3
2023-04-26T01:02:05.179Z,2.9
2023-04-26T01:03:05.846Z,2.9
2023-04-26T01:04:06.585Z,2.8
2023-04-26T01:05:07.007Z,3.4
2023-04-26T01:06:07.559Z,3.3
2023-04-26T01:07:08.155Z,2.8
2023-04-26T01:08:08.746Z,2.8
2023-04-26T01:09:09.342Z,3.2
2023-04-26T01:10:09.930Z,3.0
2023-04-26T01:11:10.525Z,3.2
2023-04-26T01:12:11.119Z,3.4
2023-04-26T01:13:11.714Z,2.7
2023-04-26T01:14:12.318Z,3.2
2023-04-26T01:15:12.920Z,3.0
2023-04-26T01:16:13.529Z,2.8
2023-04-26T01:17:14.216Z,4.0
2023-04-26T01:18:14.926Z,3.4
2023-04-26T01:19:15.546Z,3.1
2023-04-26T01:20:16.112Z,2.3
2023-04-26T01:21:16.713Z,3.0
2023-04-26T01:22:17.298Z,3.1
2023-04-26T01:23:17.896Z,2.9
2023-04-26T01:24:18.510Z,3.3
2023-04-26T01:25:19.103Z,2.8
2023-04-26T01:26:19.693Z,3.1
2023-04-26T01:27:20.307Z,3.1
2023-04-26T01:28:20.901Z,3.3
2023-04-26T01:29:21.566Z,3.1
2023-04-26T01:30:22.124Z,3.2
2023-04-26T01:31:22.799Z,3.5
2023-04-26T01:32:23.380Z,3.0
2023-04-26T01:33:23.976Z,3.5
2023-04-26T01:34:24.571Z,3.1
2023-04-26T01:35:25.185Z,2.9
2023-04-26T01:36:25.776Z,3.4
2023-04-26T01:37:26.381Z,3.5
2023-04-26T01:38:26.967Z,3.3
2023-04-26T01:39:27.577Z,3.0
2023-04-26T01:40:28.190Z,3.4
2023-04-26T01:41:28.788Z,3.0
2023-04-26T01:42:29.383Z,3.3
2023-04-26T01:43:29.993Z,3.8
2023-04-26T01:44:30.590Z,3.0
2023-04-26T01:45:31.210Z,3.1
2023-04-26T01:46:31.862Z,3.5
2023-04-26T01:47:32.510Z,3.0
2023-04-26T01:48:33.021Z,3.8
2023-04-26T01:49:33.638Z,3.2
2023-04-26T01:50:34.251Z,3.9
2023-04-26T01:51:34.845Z,3.7
2023-04-26T01:52:35.438Z,2.7
2023-04-26T01:53:36.036Z,3.4
2023-04-26T01:54:36.648Z,3.2
2023-04-26T01:55:37.247Z,3.3
2023-04-26T01:56:37.859Z,3.6
2023-04-26T01:57:38.433Z,3.7
2023-04-26T01:58:39.046Z,3.1
2023-04-26T01:59:39.652Z,2.9
2023-04-26T02:00:40.254Z,3.7
2023-04-26T02:01:40.887Z,3.4
2023-04-26T02:02:41.568Z,3.0
2023-04-26T02:03:42.218Z,3.4
2023-04-26T02:04:42.809Z,3.7
2023-04-26T02:05:43.392Z,3.3
2023-04-26T02:06:43.998Z,3.6
2023-04-26T02:07:44.581Z,2.9
2023-04-26T02:08:45.178Z,2.9
2023-04-26T02:09:45.770Z,3.6
2023-04-26T02:10:46.364Z,3.8
2023-04-26T02:11:46.961Z,2.9
2023-04-26T02:12:47.552Z,3.1
2023-04-26T02:13:48.147Z,3.6
2023-04-26T02:14:48.761Z,3.3
2023-04-26T02:15:49.388Z,3.5
2023-04-26T02:16:49.957Z,2.8
2023-04-26T02:17:50.568Z,3.1
2023-04-26T02:18:51.330Z,3.6
2023-04-26T02:19:51.956Z,3.3
2023-04-26T02:20:52.548Z,3.1
2023-04-26T02:21:53.144Z,3.2
2023-04-26T02:22:53.739Z,3.0
2023-04-26T02:23:54.333Z,3.4
2023-04-26T02:24:54.945Z,3.6
2023-04-26T02:25:55.574Z,3.9
2023-04-26T02:26:56.158Z,3.5
2023-04-26T02:27:56.773Z,3.3
2023-04-26T02:28:57.366Z,3.4
2023-04-26T02:29:57.959Z,3.5
2023-04-26T02:30:58.608Z,3.3
2023-04-26T02:31:59.214Z,3.3
2023-04-26T02:32:59.845Z,4.3
2023-04-26T02:34:00.405Z,3.8
2023-04-26T02:35:00.996Z,3.7
2023-04-26T02:36:01.592Z,3.8
2023-04-26T02:37:02.205Z,3.4
2023-04-26T02:38:02.803Z,3.5
2023-04-26T02:39:03.397Z,3.2
2023-04-26T02:40:04.009Z,3.1
2023-04-26T02:41:04.597Z,3.3
2023-04-26T02:42:05.199Z,3.0
2023-04-26T02:43:05.792Z,3.9
2023-04-26T02:44:06.375Z,3.5
2023-04-26T02:45:06.985Z,3.2
2023-04-26T02:46:07.582Z,3.8
2023-04-26T02:47:08.283Z,2.9
2023-04-26T02:48:08.815Z,3.8
2023-04-26T02:49:09.397Z,4.0
2023-04-26T02:50:09.994Z,3.5
2023-04-26T02:51:10.607Z,3.3
2023-04-26T02:52:11.196Z,3.2
2023-04-26T02:53:11.790Z,3.4
2023-04-26T02:54:12.393Z,3.8
2023-04-26T02:55:12.977Z,4.0
2023-04-26T02:56:13.572Z,3.6
2023-04-26T02:57:14.185Z,3.6
2023-04-26T02:58:14.777Z,3.4
2023-04-26T02:59:15.370Z,3.8
2023-04-26T03:00:16.058Z,3.4
2023-04-26T03:01:16.652Z,3.6
2023-04-26T03:02:17.295Z,3.5
2023-04-26T03:03:18.235Z,3.4
2023-04-26T03:04:18.693Z,3.8
2023-04-26T03:05:19.319Z,4.0
2023-04-26T03:06:19.919Z,3.3
2023-04-26T03:07:20.504Z,3.8
2023-04-26T03:08:21.106Z,3.4
2023-04-26T03:09:21.694Z,3.5
2023-04-26T03:10:22.286Z,4.0
2023-04-26T03:11:22.901Z,3.5
2023-04-26T03:12:23.494Z,3.3
2023-04-26T03:13:24.088Z,4.1
2023-04-26T03:14:24.682Z,4.2
2023-04-26T03:15:25.304Z,4.4
2023-04-26T03:16:25.944Z,3.5
2023-04-26T03:17:26.561Z,3.7
2023-04-26T03:18:27.132Z,3.6
2023-04-26T03:19:27.744Z,2.9
2023-04-26T03:20:28.347Z,4.0
2023-04-26T03:21:28.932Z,4.0
2023-04-26T03:22:29.546Z,3.7
2023-04-26T03:23:30.142Z,3.9
2023-04-26T03:24:30.736Z,3.9
2023-04-26T03:25:31.332Z,4.1
2023-04-26T03:26:31.924Z,3.7
2023-04-26T03:27:32.520Z,3.3
2023-04-26T03:28:33.133Z,3.9
2023-04-26T03:29:33.727Z,4.1
2023-04-26T03:30:34.331Z,3.9
2023-04-26T03:31:34.997Z,3.4
2023-04-26T03:32:35.604Z,4.7
2023-04-26T03:33:36.142Z,3.9
2023-04-26T03:34:36.770Z,3.7
2023-04-26T03:35:37.360Z,4.3
2023-04-26T03:36:37.948Z,4.3
2023-04-26T03:37:38.569Z,3.7
2023-04-26T03:38:39.154Z,4.9
2023-04-26T03:39:39.752Z,3.8
2023-04-26T03:40:40.346Z,4.3
2023-04-26T03:41:40.962Z,3.9
2023-04-26T03:42:41.571Z,4.1
2023-04-26T03:43:42.166Z,4.3
2023-04-26T03:44:42.785Z,4.1
2023-04-26T03:45:43.413Z,4.2
2023-04-26T03:46:44.004Z,4.2
2023-04-26T03:47:44.637Z,3.9
2023-04-26T03:48:45.191Z,3.9
2023-04-26T03:49:45.791Z,3.9
2023-04-26T03:50:46.407Z,3.6
2023-04-26T03:51:47.009Z,4.7
2023-04-26T03:52:47.622Z,4.1
2023-04-26T03:53:48.233Z,3.9
2023-04-26T03:54:48.827Z,4.6
2023-04-26T03:55:49.426Z,4.1
2023-04-26T03:56:50.035Z,3.9
2023-04-26T03:57:50.619Z,4.0
2023-04-26T03:58:51.477Z,3.8
2023-04-26T03:59:51.830Z,3.5
2023-04-26T04:00:52.426Z,4.2
2023-04-26T04:01:53.021Z,4.7
2023-04-26T04:02:53.752Z,4.0
2023-04-26T04:03:54.679Z,4.5
2023-04-26T04:04:55.636Z,4.1
2023-04-26T04:05:55.989Z,4.4
2023-04-26T04:06:56.586Z,4.3
2023-04-26T04:07:57.187Z,4.3
2023-04-26T04:08:57.784Z,4.0
2023-04-26T04:09:58.379Z,4.0
2023-04-26T04:10:58.981Z,4.5
2023-04-26T04:11:59.575Z,4.2
2023-04-26T04:13:00.214Z,4.1
2023-04-26T04:14:00.806Z,4.5
2023-04-26T04:15:01.412Z,4.6
2023-04-26T04:16:02.029Z,4.7
2023-04-26T04:17:02.581Z,4.4
2023-04-26T04:18:03.231Z,4.4
2023-04-26T04:19:03.846Z,3.8
2023-04-26T04:20:04.443Z,4.1
2023-04-26T04:21:05.039Z,4.6
2023-04-26T04:22:05.642Z,4.6
2023-04-26T04:23:06.287Z,4.9
2023-04-26T04:24:06.862Z,4.0
2023-04-26T04:25:07.451Z,4.5
2023-04-26T04:26:08.050Z,4.7
2023-04-26T04:27:08.649Z,4.5
2023-04-26T04:28:09.287Z,4.4
2023-04-26T04:29:09.861Z,4.5
2023-04-26T04:30:10.472Z,4.5
2023-04-26T04:31:11.081Z,3.8
2023-04-26T04:32:11.654Z,4.3
2023-04-26T04:33:12.319Z,4.4
2023-04-26T04:34:12.919Z,4.4
2023-04-26T04:35:13.540Z,4.8
2023-04-26T04:36:14.161Z,4.1
2023-04-26T04:37:14.757Z,4.4
2023-04-26T04:38:15.365Z,4.0
2023-04-26T04:39:16.072Z,3.8
2023-04-26T04:40:16.658Z,4.1
2023-04-26T04:41:17.260Z,4.0
2023-04-26T04:42:17.877Z,4.1
2023-04-26T04:43:18.481Z,4.5
2023-04-26T04:44:19.098Z,4.4
2023-04-26T04:45:19.695Z,4.8
2023-04-26T04:46:20.335Z,3.9
2023-04-26T04:47:20.930Z,4.1
2023-04-26T04:48:21.534Z,3.8
2023-04-26T04:49:22.129Z,4.5
2023-04-26T04:50:22.733Z,4.1
2023-04-26T04:51:23.336Z,4.7
2023-04-26T04:52:23.932Z,4.4
2023-04-26T04:53:24.529Z,4.4
2023-04-26T04:54:25.139Z,3.9
2023-04-26T04:55:25.741Z,4.5
2023-04-26T04:56:26.347Z,4.4
2023-04-26T04:57:26.948Z,4.3
2023-04-26T04:58:27.525Z,4.4
2023-04-26T04:59:28.207Z,4.5
2023-04-26T05:00:28.778Z,4.1
2023-04-26T05:01:29.395Z,5.5
2023-04-26T05:02:30.141Z,4.3
2023-04-26T05:03:30.922Z,4.4
2023-04-26T05:04:31.763Z,4.4
2023-04-26T05:05:32.522Z,4.3
2023-04-26T05:06:33.128Z,4.5
2023-04-26T05:07:33.728Z,4.5
2023-04-26T05:08:34.325Z,4.5
2023-04-26T05:09:34.924Z,4.3
2023-04-26T05:10:35.522Z,4.7
2023-04-26T05:11:36.120Z,4.4
2023-04-26T05:12:36.747Z,4.5
2023-04-26T05:13:37.360Z,3.8
2023-04-26T05:14:37.949Z,3.9
2023-04-26T05:15:38.547Z,4.1
2023-04-26T05:16:39.170Z,4.0
2023-04-26T05:17:39.799Z,4.3
2023-04-26T05:18:40.362Z,4.5
2023-04-26T05:19:40.979Z,3.9
2023-04-26T05:20:41.604Z,4.2
2023-04-26T05:21:42.173Z,4.1
2023-04-26T05:22:42.773Z,4.4
2023-04-26T05:23:43.387Z,3.8
2023-04-26T05:24:43.988Z,4.2
2023-04-26T05:25:44.590Z,4.6
2023-04-26T05:26:45.188Z,4.1
2023-04-26T05:27:45.819Z,4.2
2023-04-26T05:28:46.402Z,4.1
2023-04-26T05:29:47.010Z,3.4
2023-04-26T05:30:47.603Z,3.9
2023-04-26T05:31:48.222Z,4.5
2023-04-26T05:32:48.832Z,3.8
2023-04-26T05:33:49.571Z,3.8
2023-04-26T05:34:50.335Z,3.5
2023-04-26T05:35:50.933Z,3.8
2023-04-26T05:36:51.542Z,3.9
2023-04-26T05:37:52.154Z,3.7
2023-04-26T05:38:52.757Z,3.8
2023-04-26T05:39:53.350Z,2.8
2023-04-26T05:40:53.956Z,3.8
2023-04-26T05:41:54.559Z,3.5
2023-04-26T05:42:55.148Z,2.9
2023-04-26T05:43:55.845Z,3.4
2023-04-26T05:44:56.393Z,3.4
2023-04-26T05:45:57.040Z,3.1
2023-04-26T05:46:57.715Z,3.1
2023-04-26T05:47:58.254Z,3.3
2023-04-26T05:48:58.844Z,2.7
2023-04-26T05:49:59.466Z,2.9
2023-04-26T05:51:00.084Z,2.9
2023-04-26T05:52:00.670Z,3.3
2023-04-26T05:53:01.269Z,2.8
2023-04-26T05:54:01.863Z,3.1
2023-04-26T05:55:02.462Z,3.1
2023-04-26T05:56:03.063Z,3.1
2023-04-26T05:57:03.834Z,3.1
2023-04-26T05:58:04.448Z,2.8
2023-04-26T05:59:05.047Z,3.6
2023-04-26T06:00:05.650Z,3.3
2023-04-26T06:01:06.247Z,3.2
2023-04-26T06:02:06.949Z,3.3
2023-04-26T06:03:07.668Z,3.3
2023-04-26T06:04:08.992Z,3.3
2023-04-26T06:05:10.065Z,3.0
2023-04-26T06:06:10.815Z,3.2
2023-04-26T06:07:11.411Z,3.7
2023-04-26T06:08:12.014Z,3.1
2023-04-26T06:09:12.609Z,3.1
2023-04-26T06:10:13.212Z,3.3
2023-04-26T06:11:14.268Z,3.6
2023-04-26T06:12:14.872Z,3.1
2023-04-26T06:13:15.465Z,3.5
2023-04-26T06:14:29.518Z,4.0
2023-04-26T06:15:17.677Z,3.4
2023-04-26T06:16:18.313Z,3.4
2023-04-26T06:17:18.928Z,3.7
2023-04-26T06:18:19.568Z,2.7
2023-04-26T06:19:20.161Z,3.2
2023-04-26T06:20:20.758Z,2.8
2023-04-26T06:21:21.362Z,2.8
2023-04-26T06:22:21.982Z,3.0
2023-04-26T06:23:22.564Z,3.2
2023-04-26T06:24:23.167Z,2.7
2023-04-26T06:25:23.782Z,3.2
2023-04-26T06:26:24.362Z,3.3
2023-04-26T06:27:24.983Z,2.6
2023-04-26T06:28:25.581Z,2.9
2023-04-26T06:29:26.184Z,3.0
2023-04-26T06:30:26.790Z,3.5
2023-04-26T06:31:27.433Z,2.9
2023-04-26T06:32:28.071Z,2.7
2023-04-26T06:33:28.640Z,2.8
2023-04-26T06:34:29.237Z,3.0
2023-04-26T06:35:29.839Z,2.6
2023-04-26T06:36:30.437Z,3.2
2023-04-26T06:37:31.053Z,2.4
2023-04-26T06:38:31.635Z,2.8
2023-04-26T06:39:32.243Z,3.2
2023-04-26T06:40:32.837Z,3.3
2023-04-26T06:41:33.437Z,2.9
2023-04-26T06:42:34.034Z,3.0
2023-04-26T06:43:34.654Z,3.0
2023-04-26T06:44:35.254Z,3.0
2023-04-26T06:45:35.863Z,2.7
2023-04-26T06:46:36.512Z,3.1
2023-04-26T06:47:37.172Z,3.0
2023-04-26T06:48:37.715Z,3.6
2023-04-26T06:49:38.315Z,2.4
2023-04-26T06:50:38.913Z,3.0
2023-04-26T06:51:39.516Z,2.8
2023-04-26T06:52:40.109Z,2.9
2023-04-26T06:53:40.813Z,3.0
2023-04-26T06:54:53.585Z,3.4
2023-04-26T06:55:41.958Z,2.8
2023-04-26T06:56:42.589Z,3.1
2023-04-26T06:57:43.181Z,2.8
2023-04-26T06:58:43.794Z,2.8
2023-04-26T06:59:44.394Z,2.5
2023-04-26T07:00:45.009Z,2.5
2023-04-26T07:01:45.655Z,2.7
2023-04-26T07:02:46.378Z,3.5
2023-04-26T07:03:47.162Z,2.6
2023-04-26T07:04:48.001Z,2.8
2023-04-26T07:05:48.659Z,2.8
2023-04-26T07:06:49.260Z,2.9
2023-04-26T07:07:50.062Z,2.4
2023-04-26T07:08:50.977Z,3.1
2023-04-26T07:09:51.440Z,2.9
2023-04-26T07:10:52.019Z,3.1
2023-04-26T07:11:52.641Z,2.7
2023-04-26T07:12:53.260Z,3.6
2023-04-26T07:13:54.066Z,3.2
2023-04-26T07:14:54.761Z,2.8
2023-04-26T07:15:55.411Z,4.2
2023-04-26T07:16:56.015Z,2.7
2023-04-26T07:17:56.662Z,2.8
2023-04-26T07:18:57.225Z,3.3
2023-04-26T07:19:57.847Z,2.9
2023-04-26T07:20:58.446Z,2.9
2023-04-26T07:21:59.055Z,3.2
2023-04-26T07:22:59.668Z,3.5
2023-04-26T07:24:00.265Z,3.0
2023-04-26T07:25:00.908Z,2.8
2023-04-26T07:26:01.473Z,3.3
2023-04-26T07:27:02.070Z,3.0
2023-04-26T07:28:02.669Z,3.0
2023-04-26T07:29:03.271Z,2.5
2023-04-26T07:30:03.872Z,2.3
2023-04-26T07:31:05.585Z,3.2
2023-04-26T07:32:06.079Z,3.5
2023-04-26T07:33:06.853Z,3.4
2023-04-26T07:34:07.286Z,3.4
2023-04-26T07:35:07.883Z,3.1
2023-04-26T07:36:08.486Z,2.7
2023-04-26T07:37:09.109Z,2.9
2023-04-26T07:38:09.707Z,2.3
2023-04-26T07:39:10.314Z,3.0
2023-04-26T07:40:10.932Z,2.5
2023-04-26T07:41:11.535Z,2.6
2023-04-26T07:42:12.156Z,2.8
2023-04-26T07:43:12.794Z,2.6
2023-04-26T07:44:13.399Z,2.5
2023-04-26T07:45:14.000Z,2.9
2023-04-26T07:46:14.653Z,2.3
2023-04-26T07:47:15.228Z,3.0
2023-04-26T07:48:15.875Z,2.2
2023-04-26T07:49:16.453Z,2.5
2023-04-26T07:50:17.060Z,3.0
2023-04-26T07:51:17.650Z,2.8
2023-04-26T07:52:18.252Z,2.4
2023-04-26T07:53:18.852Z,2.4
2023-04-26T07:54:19.458Z,2.1
2023-04-26T07:55:20.073Z,2.7
2023-04-26T07:56:20.674Z,2.6
2023-04-26T07:57:21.301Z,2.0
2023-04-26T07:58:21.916Z,2.2
2023-04-26T07:59:22.520Z,2.2
2023-04-26T08:00:23.141Z,2.0
2023-04-26T08:01:23.755Z,2.4
2023-04-26T08:02:36.829Z,2.6
2023-04-26T08:03:26.194Z,2.3
2023-04-26T08:04:26.640Z,2.3
2023-04-26T08:05:27.382Z,2.1
2023-04-26T08:06:28.220Z,2.6
2023-04-26T08:07:28.841Z,2.0
2023-04-26T08:08:29.438Z,2.1
2023-04-26T08:09:30.062Z,2.4
2023-04-26T08:10:30.681Z,2.1
2023-04-26T08:11:31.301Z,2.4
2023-04-26T08:12:31.906Z,1.8
2023-04-26T08:13:32.505Z,2.0
2023-04-26T08:14:33.119Z,1.9
2023-04-26T08:15:33.707Z,1.8
2023-04-26T08:16:34.360Z,2.2
2023-04-26T08:17:35.022Z,1.8
2023-04-26T08:18:35.591Z,2.3
2023-04-26T08:19:36.151Z,2.1
2023-04-26T08:20:36.746Z,2.1
2023-04-26T08:21:37.349Z,1.7
2023-04-26T08:22:37.953Z,1.4
2023-04-26T08:23:38.553Z,2.0
2023-04-26T08:24:39.169Z,1.6
2023-04-26T08:25:39.791Z,2.0
2023-04-26T08:26:40.389Z,1.7
2023-04-26T08:27:40.986Z,1.4
2023-04-26T08:28:41.613Z,1.7
2023-04-26T08:29:42.195Z,1.6
2023-04-26T08:30:42.799Z,1.7
2023-04-26T08:31:43.409Z,1.6
2023-04-26T08:32:44.044Z,2.2
2023-04-26T08:33:44.642Z,1.5
2023-04-26T08:34:45.305Z,1.7
2023-04-26T08:35:45.908Z,1.7
2023-04-26T08:36:46.504Z,2.2
2023-04-26T08:37:47.107Z,1.7
2023-04-26T08:38:47.731Z,1.7
2023-04-26T08:39:48.351Z,1.8
2023-04-26T08:40:48.963Z,1.9
2023-04-26T08:41:49.567Z,1.9
2023-04-26T08:42:50.186Z,2.0
2023-04-26T08:43:51.144Z,1.7
2023-04-26T08:44:51.809Z,1.5
2023-04-26T08:45:52.419Z,1.8
2023-04-26T08:46:52.999Z,1.8
2023-04-26T08:47:53.632Z,2.0
2023-04-26T08:48:54.225Z,1.4
2023-04-26T08:49:54.824Z,1.8
2023-04-26T08:50:55.428Z,2.1
2023-04-26T08:51:56.026Z,1.5
2023-04-26T08:52:56.636Z,1.7
2023-04-26T08:53:57.227Z,1.4
2023-04-26T08:54:57.826Z,1.4
2023-04-26T08:55:58.426Z,2.0
2023-04-26T08:56:59.038Z,1.7
2023-04-26T08:57:59.653Z,1.9
2023-04-26T08:59:00.292Z,1.5
2023-04-26T09:00:00.875Z,2.0
2023-04-26T09:01:01.501Z,1.7
2023-04-26T09:02:02.190Z,1.3
2023-04-26T09:03:02.897Z,1.5
2023-04-26T09:04:03.730Z,1.4
2023-04-26T09:05:04.654Z,1.8
2023-04-26T09:06:05.544Z,1.5
2023-04-26T09:07:06.164Z,1.4
2023-04-26T09:08:06.799Z,1.4
2023-04-26T09:09:07.388Z,1.4
2023-04-26T09:10:07.988Z,1.6
2023-04-26T09:11:08.593Z,1.4
2023-04-26T09:12:09.250Z,1.3
2023-04-26T09:13:09.837Z,1.3
2023-04-26T09:14:10.433Z,1.6
2023-04-26T09:15:11.035Z,1.6
2023-04-26T09:16:11.700Z,1.4
2023-04-26T09:17:12.335Z,1.4
2023-04-26T09:18:12.943Z,1.5
2023-04-26T09:19:13.630Z,1.3
2023-04-26T09:20:14.163Z,1.6
2023-04-26T09:21:14.757Z,1.6
2023-04-26T09:22:15.359Z,1.3
2023-04-26T09:23:16.005Z,1.7
2023-04-26T09:24:16.599Z,1.5
2023-04-26T09:25:17.201Z,1.5
2023-04-26T09:26:17.820Z,1.2
2023-04-26T09:27:18.455Z,1.7
2023-04-26T09:28:19.061Z,1.5
2023-04-26T09:29:19.695Z,1.6
2023-04-26T09:30:20.350Z,1.8
2023-04-26T09:31:20.930Z,1.7
2023-04-26T09:32:21.515Z,1.3
2023-04-26T09:33:22.164Z,1.3
2023-04-26T09:34:22.739Z,1.2
2023-04-26T09:35:23.330Z,1.5
2023-04-26T09:36:23.933Z,1.3
2023-04-26T09:37:24.531Z,1.7
2023-04-26T09:38:25.138Z,1.9
2023-04-26T09:39:25.736Z,1.5
2023-04-26T09:40:26.338Z,1.8
2023-04-26T09:41:26.936Z,1.8
2023-04-26T09:42:27.567Z,1.6
2023-04-26T09:43:28.155Z,1.3
2023-04-26T09:44:28.778Z,1.5
2023-04-26T09:45:29.397Z,1.6
2023-04-26T09:46:30.061Z,2.1
2023-04-26T09:47:30.665Z,1.4
2023-04-26T09:48:31.255Z,1.4
2023-04-26T09:49:31.864Z,1.6
2023-04-26T09:50:32.468Z,1.4
2023-04-26T09:51:33.067Z,1.0
2023-04-26T09:52:33.726Z,1.5
2023-04-26T09:53:34.375Z,1.3
2023-04-26T09:54:34.946Z,1.5
2023-04-26T09:55:36.044Z,1.4
2023-04-26T09:56:36.686Z,1.8
2023-04-26T09:57:37.280Z,2.0
2023-04-26T09:58:37.910Z,1.7
2023-04-26T09:59:38.511Z,1.7
2023-04-26T10:00:39.172Z,1.6
2023-04-26T10:01:39.752Z,1.4
2023-04-26T10:02:40.424Z,1.5
2023-04-26T10:03:41.106Z,1.7
2023-04-26T10:04:41.865Z,1.7
2023-04-26T10:05:42.417Z,1.7
2023-04-26T10:06:43.021Z,1.5
2023-04-26T10:07:43.614Z,1.7
2023-04-26T10:08:44.217Z,1.3
2023-04-26T10:09:44.813Z,1.4
2023-04-26T10:10:45.414Z,1.6
2023-04-26T10:11:46.012Z,1.6
2023-04-26T10:12:46.624Z,1.2
2023-04-26T10:13:47.217Z,1.3
2023-04-26T10:14:47.834Z,1.5
2023-04-26T10:15:48.434Z,1.4
2023-04-26T10:16:49.050Z,1.9
2023-04-26T10:17:51.960Z,1.6
2023-04-26T10:18:51.587Z,1.3
2023-04-26T10:19:52.496Z,1.6
2023-04-26T10:20:53.018Z,1.4
2023-04-26T10:21:53.607Z,1.5
2023-04-26T10:22:54.232Z,1.2
2023-04-26T10:23:54.834Z,1.3
2023-04-26T10:24:55.430Z,1.5
2023-04-26T10:25:56.032Z,1.4
2023-04-26T10:26:56.650Z,1.7
2023-04-26T10:27:57.271Z,1.1
2023-04-26T10:29:02.545Z,1.2
2023-04-26T10:29:59.463Z,1.5
2023-04-26T10:31:00.096Z,1.6
2023-04-26T10:32:00.805Z,1.3
2023-04-26T10:33:01.451Z,1.1
2023-04-26T10:34:02.029Z,1.2
2023-04-26T10:35:02.633Z,1.6
2023-04-26T10:36:03.240Z,1.7
2023-04-26T10:37:03.861Z,1.5
2023-04-26T10:38:04.490Z,1.2
2023-04-26T10:39:05.099Z,1.4
2023-04-26T10:40:05.702Z,1.3
2023-04-26T10:41:06.304Z,1.6
2023-04-26T10:42:06.925Z,1.4
2023-04-26T10:43:07.533Z,1.3
2023-04-26T10:44:08.159Z,1.1
2023-04-26T10:45:08.750Z,1.2
2023-04-26T10:46:09.449Z,1.0
2023-04-26T10:47:10.000Z,1.4
2023-04-26T10:48:10.651Z,1.5
2023-04-26T10:49:11.211Z,1.6
2023-04-26T10:50:11.842Z,1.3
2023-04-26T10:51:12.518Z,1.3
2023-04-26T10:52:13.153Z,1.0
2023-04-26T10:53:13.776Z,1.1
2023-04-26T10:54:14.379Z,1.3
2023-04-26T10:55:14.978Z,1.2
2023-04-26T10:56:15.581Z,1.5
2023-04-26T10:57:16.181Z,1.3
2023-04-26T10:58:16.784Z,1.6
2023-04-26T10:59:36.225Z,1.3
2023-04-26T11:00:18.733Z,1.6
2023-04-26T11:01:19.335Z,1.5
2023-04-26T11:02:19.980Z,1.1
2023-04-26T11:03:20.698Z,1.2
2023-04-26T11:04:21.438Z,1.5
2023-04-26T11:05:24.140Z,1.7
2023-04-26T11:06:23.643Z,1.2
2023-04-26T11:07:24.253Z,1.1
2023-04-26T11:08:24.859Z,1.3
2023-04-26T11:09:25.476Z,1.4
2023-04-26T11:10:26.075Z,1.3
2023-04-26T11:11:26.674Z,1.5
2023-04-26T11:12:27.277Z,1.3
2023-04-26T11:13:27.875Z,1.4
2023-04-26T11:14:28.477Z,1.3
2023-04-26T11:15:29.099Z,1.3
2023-04-26T11:16:29.716Z,1.2
2023-04-26T11:17:30.362Z,1.3
2023-04-26T11:18:30.905Z,1.4
2023-04-26T11:19:31.505Z,1.5
2023-04-26T11:20:32.100Z,1.2
2023-04-26T11:21:32.709Z,1.2
2023-04-26T11:22:33.297Z,1.6
2023-04-26T11:23:33.898Z,1.6
2023-04-26T11:24:34.513Z,1.5
2023-04-26T11:25:35.112Z,1.7
2023-04-26T11:26:35.710Z,1.7
2023-04-26T11:27:36.310Z,1.5
2023-04-26T11:28:36.953Z,1.9
2023-04-26T11:29:37.560Z,2.3
2023-04-26T11:30:38.177Z,1.9
2023-04-26T11:31:38.802Z,1.9
2023-04-26T11:32:39.465Z,2.0
2023-04-26T11:33:40.010Z,2.2
2023-04-26T11:34:40.619Z,1.7
2023-04-26T11:35:41.467Z,1.7
2023-04-26T11:36:41.983Z,1.9
2023-04-26T11:37:42.586Z,1.9
2023-04-26T11:38:43.189Z,1.9
2023-04-26T11:39:43.792Z,1.8
2023-04-26T11:40:44.396Z,1.8
2023-04-26T11:41:45.020Z,1.9
2023-04-26T11:42:45.618Z,1.5
2023-04-26T11:43:46.288Z,1.9
2023-04-26T11:44:47.944Z,1.8
2023-04-26T11:45:47.450Z,2.0
2023-04-26T11:46:48.086Z,1.7
2023-04-26T11:47:48.673Z,1.9
2023-04-26T11:48:49.288Z,1.9
2023-04-26T11:49:49.890Z,1.7
2023-04-26T11:50:50.518Z,1.8
2023-04-26T11:51:51.684Z,1.5
2023-04-26T11:52:52.276Z,1.8
2023-04-26T11:53:52.885Z,2.2
2023-04-26T11:54:53.494Z,2.0
2023-04-26T11:55:54.091Z,1.9
2023-04-26T11:56:54.692Z,2.3
2023-04-26T11:57:55.310Z,1.9
2023-04-26T11:58:56.207Z,2.0
2023-04-26T11:59:56.959Z,1.7
2023-04-26T12:00:57.575Z,1.7
2023-04-26T12:01:58.327Z,1.4
2023-04-26T12:02:58.925Z,1.6
2023-04-26T12:03:59.649Z,1.7
2023-04-26T12:05:00.272Z,1.8
2023-04-26T12:06:00.897Z,1.5
2023-04-26T12:07:01.514Z,1.9
2023-04-26T12:08:02.101Z,1.9
2023-04-26T12:09:02.722Z,1.7
2023-04-26T12:10:03.325Z,1.6
2023-04-26T12:11:03.929Z,1.8
2023-04-26T12:12:04.531Z,1.7
2023-04-26T12:13:05.132Z,1.4
2023-04-26T12:14:05.733Z,1.6
2023-04-26T12:15:06.348Z,1.6
2023-04-26T12:16:15.188Z,1.7
2023-04-26T12:17:07.653Z,1.8
2023-04-26T12:18:08.250Z,1.8
2023-04-26T12:19:08.872Z,1.7
2023-04-26T12:20:09.470Z,1.8
2023-04-26T12:21:10.060Z,1.7
2023-04-26T12:22:10.647Z,1.5
2023-04-26T12:23:11.250Z,1.6
2023-04-26T12:24:11.870Z,1.5
2023-04-26T12:25:12.496Z,1.6
2023-04-26T12:26:13.118Z,1.8
2023-04-26T12:27:13.719Z,1.5
2023-04-26T12:28:14.646Z,1.6
2023-04-26T12:29:15.361Z,1.7
2023-04-26T12:30:15.963Z,1.5
2023-04-26T12:31:16.622Z,1.9
2023-04-26T12:32:17.231Z,1.8
2023-04-26T12:33:18.162Z,2.2
2023-04-26T12:34:18.448Z,1.5
2023-04-26T12:35:19.038Z,1.4
2023-04-26T12:36:19.687Z,1.4
2023-04-26T12:37:20.248Z,1.4
2023-04-26T12:38:20.911Z,1.7
2023-04-26T12:39:21.502Z,2.3
2023-04-26T12:40:22.123Z,1.2
2023-04-26T12:41:22.745Z,1.3
2023-04-26T12:42:23.344Z,1.5
2023-04-26T12:43:23.955Z,1.2
2023-04-26T12:44:24.548Z,1.7
2023-04-26T12:45:25.165Z,2.0
2023-04-26T12:46:25.840Z,1.9
2023-04-26T12:47:26.481Z,2.0
2023-04-26T12:48:27.066Z,2.1
2023-04-26T12:49:27.681Z,2.2
2023-04-26T12:50:28.283Z,1.7
2023-04-26T12:51:28.871Z,1.8
2023-04-26T12:52:29.477Z,1.8
2023-04-26T12:53:30.068Z,1.8
2023-04-26T12:54:30.673Z,1.8
2023-04-26T12:55:32.853Z,1.7
2023-04-26T12:56:32.872Z,1.8
2023-04-26T12:57:33.487Z,1.7
2023-04-26T12:58:34.088Z,1.5
2023-04-26T12:59:34.688Z,1.7
2023-04-26T13:00:35.296Z,1.9
2023-04-26T13:01:35.902Z,1.4
2023-04-26T13:02:36.622Z,1.7
2023-04-26T13:03:37.505Z,1.6
2023-04-26T13:04:40.805Z,1.9
2023-04-26T13:05:39.509Z,2.0
2023-04-26T13:06:40.135Z,1.8
2023-04-26T13:07:40.715Z,1.9
2023-04-26T13:08:41.309Z,1.9
2023-04-26T13:09:41.924Z,2.1
2023-04-26T13:10:42.543Z,1.6
2023-04-26T13:11:43.149Z,1.8
2023-04-26T13:12:43.739Z,2.0
2023-04-26T13:13:45.026Z,1.9
2023-04-26T13:14:45.786Z,1.7
2023-04-26T13:15:46.425Z,1.9
2023-04-26T13:16:46.996Z,1.4
2023-04-26T13:17:47.607Z,1.9
2023-04-26T13:18:48.198Z,2.2
2023-04-26T13:19:48.825Z,1.6
2023-04-26T13:20:49.436Z,2.0
2023-04-26T13:21:50.042Z,1.8
2023-04-26T13:22:50.660Z,1.7
2023-04-26T13:23:51.258Z,1.9
2023-04-26T13:24:51.861Z,1.9
2023-04-26T13:25:52.461Z,1.5
2023-04-26T13:26:53.063Z,2.2
2023-04-26T13:27:53.709Z,2.4
2023-04-26T13:28:54.279Z,2.2
2023-04-26T13:29:54.877Z,1.6
2023-04-26T13:30:55.483Z,1.9
2023-04-26T13:31:56.168Z,2.0
2023-04-26T13:32:59.483Z,2.8
2023-04-26T13:33:58.598Z,2.5
2023-04-26T13:34:59.209Z,2.0
2023-04-26T13:35:59.825Z,1.8
2023-04-26T13:37:00.512Z,3.0
2023-04-26T13:38:01.042Z,2.1
2023-04-26T13:39:01.667Z,1.9
2023-04-26T13:40:02.269Z,2.2
2023-04-26T13:41:02.852Z,2.3
2023-04-26T13:42:03.481Z,2.8
2023-04-26T13:43:04.079Z,2.3
2023-04-26T13:44:04.706Z,2.3
2023-04-26T13:45:05.297Z,2.4
2023-04-26T13:46:05.943Z,2.5
2023-04-26T13:47:06.512Z,2.6
2023-04-26T13:48:07.262Z,2.3
2023-04-26T13:49:07.864Z,2.0
2023-04-26T13:50:08.465Z,2.3
2023-04-26T13:51:09.071Z,1.8
2023-04-26T13:52:09.687Z,1.7
2023-04-26T13:53:10.323Z,2.1
2023-04-26T13:54:10.929Z,2.2
2023-04-26T13:55:11.538Z,2.1